Time;durP1;ratioP1;P1;durP2;ratioP2;P2;SDS_P1;SDS_P2;PMS_P1;PMS_P2;Temp;Humidity;BMP_temperature;BMP_pressure;BME280_temperature;BME280_humidity;BME280_pressure;Samples;Min_cycle;Max_cycle;Signal;HPM_P1;HPM_P2
2023/12/05 00:00:16;;;;;;;10.40;9.40;;;;;;;2.57;81.24;99705.31;5017943;28;20199;-79
2023/12/05 00:02:42;;;;;;;11.20;9.90;;;;;;;2.58;81.32;99714.78;5017939;28;20220;-80
2023/12/05 00:05:10;;;;;;;10.37;9.37;;;;;;;2.59;81.21;99713.91;5018274;28;20203;-79
2023/12/05 00:07:37;;;;;;;10.93;9.83;;;;;;;2.59;81.46;99708.75;5019196;28;20203;-80
2023/12/05 00:10:04;;;;;;;10.90;9.90;;;;;;;2.58;82.23;99699.31;5018547;28;20208;-81
2023/12/05 00:12:30;;;;;;;10.17;9.27;;;;;;;2.62;82.06;99688.16;5018957;28;20282;-79
2023/12/05 00:14:56;;;;;;;10.63;9.63;;;;;;;2.58;81.70;99689.88;5017566;28;20204;-80
2023/12/05 00:17:23;;;;;;;11.03;10.03;;;;;;;2.56;82.05;99681.28;5017870;28;20199;-80
2023/12/05 00:19:49;;;;;;;10.77;9.83;;;;;;;2.59;82.21;99663.22;5019961;28;20214;-79
2023/12/05 00:22:17;;;;;;;10.87;9.87;;;;;;;2.57;81.94;99666.66;5016049;28;20278;-79
2023/12/05 00:24:44;;;;;;;9.90;9.00;;;;;;;2.61;81.33;99667.53;5017957;28;20201;-80
2023/12/05 00:27:10;;;;;;;10.60;9.60;;;;;;;2.62;81.21;99679.53;5018389;28;20210;-80
2023/12/05 00:29:38;;;;;;;11.10;10.10;;;;;;;2.60;81.53;99677.00;5017855;28;20207;-80
2023/12/05 00:32:05;;;;;;;11.23;10.17;;;;;;;2.60;81.54;99674.41;5015588;28;20272;-80
2023/12/05 00:34:31;;;;;;;11.33;10.13;;;;;;;2.59;81.56;99677.84;5018690;28;20383;-80
2023/12/05 00:36:57;;;;;;;10.87;9.87;;;;;;;2.57;81.51;99671.81;5017540;28;20199;-80
2023/12/05 00:39:25;;;;;;;11.53;10.07;;;;;;;2.57;81.49;99672.66;5018079;28;20199;-80
2023/12/05 00:41:51;;;;;;;21.30;10.97;;;;;;;2.56;81.95;99660.66;5018682;28;20240;-80
2023/12/05 00:44:18;;;;;;;11.50;10.40;;;;;;;2.57;82.51;99646.06;5018238;28;20675;-80
2023/12/05 00:46:44;;;;;;;11.63;10.43;;;;;;;2.61;82.13;99650.34;5017766;28;20203;-81
2023/12/05 00:49:11;;;;;;;11.70;9.97;;;;;;;2.64;82.13;99654.69;5017873;28;20229;-81
2023/12/05 00:51:37;;;;;;;11.63;10.53;;;;;;;2.64;82.20;99650.38;5016615;28;20644;-80
2023/12/05 00:54:04;;;;;;;10.97;9.87;;;;;;;2.65;82.46;99652.06;5017188;28;20214;-80
2023/12/05 00:56:32;;;;;;;10.60;9.47;;;;;;;2.64;82.40;99641.78;5018082;28;20281;-78
2023/12/05 00:58:58;;;;;;;11.00;9.83;;;;;;;2.68;82.29;99646.09;5017537;28;20211;-81
2023/12/05 01:01:25;;;;;;;10.07;9.17;;;;;;;2.68;81.83;99649.50;5017644;28;20247;-81
2023/12/05 01:03:52;;;;;;;11.47;10.37;;;;;;;2.70;81.54;99646.94;5017122;28;20203;-78
2023/12/05 01:06:18;;;;;;;11.30;10.20;;;;;;;2.72;81.72;99651.22;5017272;28;20204;-81
2023/12/05 01:08:44;;;;;;;10.93;9.83;;;;;;;2.74;81.99;99651.25;5017689;28;20207;-80
2023/12/05 01:11:11;;;;;;;10.63;9.70;;;;;;;2.73;81.18;99664.97;5016932;28;20272;-79
2023/12/05 01:13:39;;;;;;;10.50;9.50;;;;;;;2.75;81.35;99671.81;5015993;28;20206;-81
2023/12/05 01:16:06;;;;;;;11.00;10.00;;;;;;;2.74;82.26;99662.41;5016812;28;20218;-76
2023/12/05 01:18:33;;;;;;;11.30;10.30;;;;;;;2.75;81.98;99658.94;5017301;28;20211;-81
2023/12/05 01:20:59;;;;;;;10.33;9.33;;;;;;;2.73;81.92;99658.09;5016010;28;20238;-78
2023/12/05 01:23:25;;;;;;;11.23;10.23;;;;;;;2.74;82.26;99651.25;5010651;28;20269;-80
2023/12/05 01:25:52;;;;;;;10.93;9.83;;;;;;;2.75;82.12;99652.94;5016919;28;20730;-79
2023/12/05 01:28:18;;;;;;;11.10;10.00;;;;;;;2.73;82.04;99649.50;5016702;28;20208;-80
2023/12/05 01:30:46;;;;;;;11.10;10.10;;;;;;;2.73;82.37;99639.19;5016550;28;20222;-80
2023/12/05 01:33:12;;;;;;;11.70;10.60;;;;;;;2.76;82.06;99639.22;5015522;28;20661;-80
2023/12/05 01:35:38;;;;;;;12.00;9.80;;;;;;;2.71;82.30;99635.75;5016570;28;20202;-80
2023/12/05 01:38:05;;;;;;;11.50;10.40;;;;;;;2.74;81.77;99633.19;5015271;28;20582;-80
2023/12/05 01:40:31;;;;;;;12.00;10.77;;;;;;;2.76;82.12;99640.06;5016464;28;20206;-80
2023/12/05 01:42:57;;;;;;;11.73;10.53;;;;;;;2.75;82.12;99638.31;5015268;28;20224;-80
2023/12/05 01:45:24;;;;;;;10.73;9.80;;;;;;;2.78;82.19;99640.91;5016145;28;20211;-80
2023/12/05 01:47:52;;;;;;;11.30;10.20;;;;;;;2.80;82.18;99635.78;5015273;28;20242;-79
2023/12/05 01:50:24;;;;;;;12.00;10.90;;;;;;;2.80;82.16;99634.91;5016237;28;20209;-80
2023/12/05 01:52:52;;;;;;;11.47;10.37;;;;;;;2.74;82.73;99628.91;5014591;28;20249;-81
2023/12/05 01:55:20;;;;;;;11.40;10.17;;;;;;;2.79;82.34;99628.88;5014400;28;20774;-78
2023/12/05 01:57:47;;;;;;;11.03;10.03;;;;;;;2.80;82.33;99622.03;5014717;28;20204;-80
2023/12/05 02:00:16;;;;;;;11.83;10.67;;;;;;;2.78;82.52;99622.88;5015692;28;20212;-81
2023/12/05 02:02:42;;;;;;;13.07;11.87;;;;;;;2.81;82.55;99611.69;5015139;28;20239;-80
2023/12/05 02:05:12;;;;;;;12.43;11.13;;;;;;;2.81;82.66;99616.84;5015939;28;20270;-80
2023/12/05 02:07:39;;;;;;;12.23;11.13;;;;;;;2.83;82.72;99615.13;5014426;28;20270;-80
2023/12/05 02:10:07;;;;;;;12.83;11.63;;;;;;;2.83;82.20;99616.84;5015056;28;20213;-80
2023/12/05 02:12:34;;;;;;;12.93;11.63;;;;;;;2.83;81.96;99614.28;5013717;28;20220;-80
2023/12/05 02:15:00;;;;;;;12.97;11.77;;;;;;;2.80;81.88;99614.31;5014267;28;20257;-81
2023/12/05 02:17:35;;;;;;;13.70;12.30;;;;;;;2.80;82.14;99607.41;5010016;28;20257;-80
2023/12/05 02:20:09;;;;;;;12.93;11.70;;;;;;;2.80;82.38;99609.16;5018810;28;20206;-79
2023/12/05 02:22:59;;;;;;;13.83;12.53;;;;;;;2.82;82.32;99602.28;5017748;28;20222;-80
2023/12/05 02:25:39;;;;;;;12.93;11.80;;;;;;;2.76;82.63;99592.81;5018777;28;20554;-79
2023/12/05 02:28:10;;;;;;;14.83;13.43;;;;;;;2.80;83.47;99585.97;5018718;28;20295;-80
2023/12/05 02:30:36;;;;;;;14.23;12.73;;;;;;;2.81;83.06;99573.03;5017934;28;20740;-80
2023/12/05 02:33:02;;;;;;;13.60;12.30;;;;;;;2.81;82.97;99569.63;5017947;28;20260;-79
2023/12/05 02:35:29;;;;;;;13.47;12.23;;;;;;;2.82;83.19;99559.31;5018669;28;20578;-80
2023/12/05 02:38:02;;;;;;;13.03;11.67;;;;;;;2.81;83.91;99549.84;5018327;28;20663;-80
2023/12/05 02:40:35;;;;;;;13.80;12.40;;;;;;;2.83;83.60;99536.97;5019725;28;20208;-80
2023/12/05 02:43:05;;;;;;;13.50;12.20;;;;;;;2.81;82.78;99543.84;5017489;28;20234;-80
2023/12/05 02:45:35;;;;;;;12.83;11.63;;;;;;;2.78;83.26;99549.88;5019523;28;20204;-80
2023/12/05 02:48:03;;;;;;;12.77;11.57;;;;;;;2.82;83.46;99548.16;5018564;28;20254;-79
2023/12/05 02:50:29;;;;;;;14.30;12.57;;;;;;;2.80;83.41;99537.84;5018651;28;20200;-80
2023/12/05 02:52:55;;;;;;;15.10;12.37;;;;;;;2.81;83.72;99533.53;5017871;28;20217;-79
2023/12/05 02:55:22;;;;;;;13.67;12.27;;;;;;;2.79;84.39;99520.66;5018863;28;20213;-79
2023/12/05 02:57:48;;;;;;;14.87;12.33;;;;;;;2.83;84.24;99512.03;5017695;28;20200;-80
2023/12/05 03:00:15;;;;;;;14.47;13.17;;;;;;;2.85;84.24;99514.63;5018088;28;20212;-79
2023/12/05 03:02:43;;;;;;;13.00;11.80;;;;;;;2.87;84.36;99500.00;5017303;28;20233;-80
2023/12/05 03:05:09;;;;;;;13.33;12.03;;;;;;;2.90;83.90;99511.19;5019043;28;20209;-79
2023/12/05 03:07:36;;;;;;;14.63;12.47;;;;;;;2.91;83.55;99519.75;5017577;28;20204;-79
2023/12/05 03:10:04;;;;;;;12.70;11.40;;;;;;;2.87;83.40;99520.63;5018116;28;20207;-80
2023/12/05 03:12:33;;;;;;;14.20;12.70;;;;;;;2.90;83.55;99525.78;5009075;28;20220;-80
2023/12/05 03:14:59;;;;;;;13.27;11.97;;;;;;;2.87;84.20;99521.47;5015437;28;20725;-80
2023/12/05 03:17:25;;;;;;;14.97;13.37;;;;;;;2.87;84.27;99513.75;5015361;28;20235;-80
2023/12/05 03:19:53;;;;;;;12.87;11.67;;;;;;;2.87;83.29;99518.91;5016515;28;20742;-79
2023/12/05 03:22:19;;;;;;;13.80;12.50;;;;;;;2.89;83.50;99517.19;5014125;28;20300;-80
2023/12/05 03:24:46;;;;;;;13.77;12.47;;;;;;;2.88;83.41;99518.06;5017766;28;20204;-80
2023/12/05 03:27:12;;;;;;;13.80;12.40;;;;;;;2.86;83.74;99508.63;5017540;28;20238;-81
2023/12/05 03:29:38;;;;;;;13.63;12.37;;;;;;;2.84;84.30;99506.03;5017055;28;20198;-80
2023/12/05 03:32:06;;;;;;;13.70;12.40;;;;;;;2.84;83.76;99506.03;5016598;28;20232;-80
2023/12/05 03:34:32;;;;;;;13.80;12.43;;;;;;;2.87;84.03;99494.84;5009858;28;20588;-82
2023/12/05 03:37:00;;;;;;;14.17;12.73;;;;;;;2.88;84.59;99494.00;5016743;28;20219;-79
2023/12/05 03:39:27;;;;;;;13.73;12.37;;;;;;;2.89;84.40;99486.25;5017443;28;20202;-79
2023/12/05 03:41:53;;;;;;;12.77;11.47;;;;;;;2.89;83.94;99481.09;5016518;28;20240;-79
2023/12/05 03:44:20;;;;;;;13.93;12.53;;;;;;;2.93;84.07;99488.00;5016598;28;20207;-79
2023/12/05 03:46:47;;;;;;;13.43;12.13;;;;;;;2.93;83.78;99492.25;5016495;28;20204;-79
2023/12/05 03:49:13;;;;;;;13.70;12.30;;;;;;;2.93;83.84;99493.16;5016153;28;20202;-78
2023/12/05 03:51:40;;;;;;;14.17;12.77;;;;;;;2.92;84.26;99496.56;5015490;28;20226;-79
2023/12/05 03:54:07;;;;;;;14.37;12.93;;;;;;;2.95;84.40;99490.53;5016718;28;20734;-80
2023/12/05 03:56:34;;;;;;;14.37;12.87;;;;;;;2.95;84.31;99491.41;5015797;28;20234;-79
2023/12/05 03:59:00;;;;;;;13.57;12.17;;;;;;;2.95;83.90;99493.13;5017251;28;20623;-80
2023/12/05 04:01:26;;;;;;;12.80;11.57;;;;;;;2.92;83.83;99494.00;5015460;28;20221;-79
2023/12/05 04:03:53;;;;;;;13.77;12.33;;;;;;;2.95;83.29;99495.69;5017169;28;20266;-80
2023/12/05 04:06:20;;;;;;;13.97;12.47;;;;;;;2.96;83.46;99505.16;5016861;28;20258;-80
2023/12/05 04:08:46;;;;;;;13.83;11.93;;;;;;;2.95;83.33;99514.63;5017849;28;20283;-79
2023/12/05 04:11:14;;;;;;;13.80;12.50;;;;;;;2.91;83.18;99522.34;5016689;28;20236;-79
2023/12/05 04:13:40;;;;;;;13.93;12.57;;;;;;;2.91;83.45;99505.16;5016537;28;20223;-79
2023/12/05 04:16:07;;;;;;;14.07;12.60;;;;;;;2.93;83.44;99515.47;5016086;28;20204;-80
2023/12/05 04:18:34;;;;;;;14.77;13.37;;;;;;;2.88;83.38;99527.53;5016126;28;20208;-79
2023/12/05 04:21:00;;;;;;;14.60;12.83;;;;;;;2.85;83.72;99512.06;5015718;28;20237;-78
2023/12/05 04:23:26;;;;;;;14.33;12.83;;;;;;;2.87;83.55;99507.75;5016382;28;20224;-80
2023/12/05 04:25:53;;;;;;;15.70;13.03;;;;;;;2.85;83.84;99514.63;5016359;28;20212;-80
2023/12/05 04:28:20;;;;;;;13.43;12.13;;;;;;;2.85;83.82;99506.91;5015302;28;20204;-80
2023/12/05 04:30:47;;;;;;;14.33;12.90;;;;;;;2.86;83.41;99512.06;5015468;28;20199;-80
2023/12/05 04:33:13;;;;;;;14.33;12.93;;;;;;;2.86;83.29;99513.78;5014682;28;20257;-79
2023/12/05 04:35:40;;;;;;;15.63;12.63;;;;;;;2.87;82.90;99511.16;5015788;28;20204;-80
2023/12/05 04:38:06;;;;;;;13.63;12.33;;;;;;;2.83;83.75;99504.31;5015445;28;20269;-80
2023/12/05 04:40:32;;;;;;;13.17;11.87;;;;;;;2.84;84.02;99492.31;5015629;28;20219;-80
2023/12/05 04:42:59;;;;;;;13.00;11.73;;;;;;;2.88;83.60;99496.59;5011853;28;20235;-80
2023/12/05 04:45:27;;;;;;;14.47;13.00;;;;;;;2.86;84.14;99490.59;5015717;28;20282;-80
2023/12/05 04:47:53;;;;;;;14.47;12.97;;;;;;;2.90;83.83;99484.56;5016624;28;20307;-80
2023/12/05 04:50:20;;;;;;;12.87;11.63;;;;;;;2.91;83.98;99486.25;5016156;28;20207;-80
2023/12/05 04:52:46;;;;;;;13.23;11.90;;;;;;;2.92;83.44;99495.72;5015159;28;20274;-80
2023/12/05 04:55:12;;;;;;;13.23;12.00;;;;;;;2.89;83.85;99493.97;5016445;28;20211;-80
2023/12/05 04:57:39;;;;;;;14.27;12.87;;;;;;;2.91;83.56;99500.00;5009091;28;20200;-80
2023/12/05 05:00:08;;;;;;;13.30;12.00;;;;;;;2.91;83.72;99492.25;5016278;28;20207;-79
2023/12/05 05:02:36;;;;;;;13.63;12.23;;;;;;;2.89;83.69;99495.72;5015820;28;20317;-80
2023/12/05 05:05:03;;;;;;;14.27;12.77;;;;;;;2.90;83.34;99497.44;5016216;28;20766;-79
2023/12/05 05:07:29;;;;;;;13.73;12.37;;;;;;;2.87;83.18;99500.00;5015985;28;20267;-80
2023/12/05 05:09:55;;;;;;;14.00;12.70;;;;;;;2.86;83.78;99499.16;5016221;28;20212;-80
2023/12/05 05:12:22;;;;;;;14.87;13.37;;;;;;;2.83;83.34;99500.88;5015369;28;20228;-80
2023/12/05 05:14:48;;;;;;;13.97;12.67;;;;;;;2.85;83.48;99502.59;5015897;28;20468;-80
2023/12/05 05:17:14;;;;;;;14.83;13.33;;;;;;;2.85;83.88;99494.84;5016323;28;20277;-79
2023/12/05 05:19:42;;;;;;;14.67;13.27;;;;;;;2.87;83.76;99495.72;5016371;28;20207;-80
2023/12/05 05:22:08;;;;;;;13.43;12.03;;;;;;;2.86;83.74;99506.91;5015458;28;20225;-80
2023/12/05 05:24:35;;;;;;;13.57;12.23;;;;;;;2.88;83.48;99502.59;5016723;28;20325;-80
2023/12/05 05:27:01;;;;;;;13.97;12.47;;;;;;;2.85;84.07;99497.44;5015560;28;20215;-80
2023/12/05 05:29:27;;;;;;;14.40;13.00;;;;;;;2.80;84.11;99477.72;5015789;28;20700;-80
2023/12/05 05:31:54;;;;;;;14.23;12.57;;;;;;;2.80;84.14;99483.72;5015950;28;20228;-80
2023/12/05 05:34:20;;;;;;;14.33;12.93;;;;;;;2.85;84.08;99478.53;5015685;28;20204;-80
2023/12/05 05:36:48;;;;;;;14.70;13.17;;;;;;;2.85;84.27;99478.53;5015554;28;20204;-79
2023/12/05 05:39:14;;;;;;;16.13;13.20;;;;;;;2.86;84.14;99475.97;5016169;28;20208;-80
2023/12/05 05:41:41;;;;;;;13.37;11.93;;;;;;;2.85;84.35;99471.66;5015203;28;20242;-79
2023/12/05 05:44:07;;;;;;;13.20;11.80;;;;;;;2.86;83.92;99478.56;5015233;28;20263;-79
2023/12/05 05:46:34;;;;;;;16.03;13.23;;;;;;;2.82;84.43;99473.41;5015514;28;20208;-79
2023/12/05 05:49:00;;;;;;;15.17;12.80;;;;;;;2.81;84.39;99467.38;5015927;28;20254;-80
2023/12/05 05:51:27;;;;;;;12.90;11.70;;;;;;;2.85;84.65;99463.94;5076767;22;20273;-78
2023/12/05 05:53:55;;;;;;;13.50;12.20;;;;;;;2.83;84.22;99464.81;5032735;28;20208;-78
2023/12/05 05:56:22;;;;;;;13.60;12.03;;;;;;;2.86;84.57;99469.97;5033247;28;20206;-77
2023/12/05 05:58:48;;;;;;;14.30;12.80;;;;;;;2.89;84.02;99469.94;5033825;28;20203;-77
2023/12/05 06:01:15;;;;;;;13.47;12.17;;;;;;;2.87;84.13;99477.66;5033321;28;20233;-77
2023/12/05 06:03:41;;;;;;;14.33;12.93;;;;;;;2.84;84.10;99480.28;5033421;28;20220;-77
2023/12/05 06:06:08;;;;;;;14.23;12.73;;;;;;;2.75;84.72;99475.13;5030183;28;20232;-77
2023/12/05 06:08:35;;;;;;;13.47;12.07;;;;;;;2.78;84.78;99468.25;5033513;28;20681;-77
2023/12/05 06:11:03;;;;;;;13.60;12.27;;;;;;;2.78;84.73;99460.53;5033561;28;20233;-77
2023/12/05 06:13:29;;;;;;;13.63;12.33;;;;;;;2.76;84.88;99459.69;5032946;28;20207;-77
2023/12/05 06:15:55;;;;;;;15.27;13.30;;;;;;;2.79;84.21;99466.53;5032919;28;20260;-77
2023/12/05 06:18:22;;;;;;;13.53;11.93;;;;;;;2.80;84.08;99464.84;5033539;28;20246;-77
2023/12/05 06:20:51;;;;;;;13.77;12.37;;;;;;;2.80;83.97;99470.84;5032962;28;20228;-77
2023/12/05 06:23:17;;;;;;;15.03;13.13;;;;;;;2.75;84.32;99469.97;5033268;28;20315;-78
2023/12/05 06:25:44;;;;;;;14.83;12.17;;;;;;;2.74;84.50;99470.84;5033243;28;20261;-77
2023/12/05 06:28:11;;;;;;;14.53;13.03;;;;;;;2.76;84.45;99463.97;5032454;28;20588;-77
2023/12/05 06:30:38;;;;;;;13.07;11.77;;;;;;;2.70;84.80;99462.28;5032744;28;20237;-77
2023/12/05 06:33:04;;;;;;;15.03;12.67;;;;;;;2.72;84.48;99465.69;5033155;28;20269;-77
2023/12/05 06:35:31;;;;;;;13.50;12.20;;;;;;;2.72;84.42;99463.13;5035136;28;20261;-77
2023/12/05 06:37:57;;;;;;;15.03;12.23;;;;;;;2.75;84.81;99467.41;5032652;28;20211;-78
2023/12/05 06:40:23;;;;;;;14.20;12.77;;;;;;;2.77;84.77;99471.72;5033251;28;20253;-77
2023/12/05 06:42:49;;;;;;;13.87;12.50;;;;;;;2.77;84.03;99478.56;5032432;28;20309;-77
2023/12/05 06:45:17;;;;;;;14.73;13.20;;;;;;;2.78;84.01;99480.28;5033231;28;20202;-77
2023/12/05 06:47:44;;;;;;;14.17;12.87;;;;;;;2.76;84.21;99479.44;5032782;28;20701;-77
2023/12/05 06:50:11;;;;;;;15.57;12.27;;;;;;;2.73;84.06;99488.00;5032488;28;20266;-77
2023/12/05 06:52:38;;;;;;;16.20;13.50;;;;;;;2.71;84.60;99483.75;5032186;28;20223;-77
2023/12/05 06:55:05;;;;;;;18.40;12.60;;;;;;;2.70;84.75;99476.88;5033458;28;20212;-77
2023/12/05 06:57:32;;;;;;;14.83;13.30;;;;;;;2.68;84.79;99478.59;5032586;28;20262;-78
2023/12/05 06:59:58;;;;;;;16.43;13.80;;;;;;;2.70;84.95;99482.03;5033233;28;20207;-77
2023/12/05 07:02:26;;;;;;;14.53;13.03;;;;;;;2.73;84.52;99476.84;5034339;28;20241;-77
2023/12/05 07:04:52;;;;;;;15.37;13.47;;;;;;;2.70;84.80;99479.47;5040480;28;20660;-77
2023/12/05 07:07:18;;;;;;;15.47;13.90;;;;;;;2.75;84.51;99472.56;5035971;28;20208;-77
2023/12/05 07:09:44;;;;;;;14.40;12.90;;;;;;;2.75;84.50;99475.97;5036780;28;20204;-77
2023/12/05 07:12:11;;;;;;;14.80;13.30;;;;;;;2.74;84.32;99486.31;5035490;28;20305;-77
2023/12/05 07:14:38;;;;;;;15.60;13.80;;;;;;;2.73;85.05;99489.75;5036941;28;20240;-78
2023/12/05 07:17:05;;;;;;;17.20;14.30;;;;;;;2.72;84.74;99485.47;5036827;28;20208;-77
2023/12/05 07:19:33;;;;;;;17.20;14.37;;;;;;;2.72;85.19;99482.88;5037037;28;20295;-77
2023/12/05 07:21:59;;;;;;;15.60;13.97;;;;;;;2.76;85.09;99479.44;5036018;28;20293;-78
2023/12/05 07:24:25;;;;;;;15.10;13.30;;;;;;;2.82;84.69;99473.41;5036194;28;20775;-78
2023/12/05 07:26:51;;;;;;;15.10;13.60;;;;;;;2.78;84.45;99480.28;5036597;28;20249;-78
2023/12/05 07:29:18;;;;;;;14.70;13.20;;;;;;;2.76;85.08;99482.03;5036802;28;20265;-78
2023/12/05 07:31:44;;;;;;;15.03;12.73;;;;;;;2.77;84.94;99474.28;5036864;28;20301;-77
2023/12/05 07:34:10;;;;;;;15.07;13.30;;;;;;;2.81;84.91;99475.13;5040659;28;20255;-77
2023/12/05 07:36:41;;;;;;;16.47;13.57;;;;;;;2.84;84.87;99479.44;5035759;28;20216;-78
2023/12/05 07:39:09;;;;;;;14.60;12.93;;;;;;;2.83;84.88;99477.69;5036676;28;20212;-77
2023/12/05 07:41:36;;;;;;;15.87;14.27;;;;;;;2.86;85.00;99473.41;5036179;28;20254;-77
2023/12/05 07:44:02;;;;;;;14.80;13.03;;;;;;;2.91;84.88;99481.09;5036481;28;20231;-78
2023/12/05 07:46:29;;;;;;;15.23;13.67;;;;;;;2.91;84.75;99487.09;5036179;28;20207;-77
2023/12/05 07:48:55;;;;;;;15.43;13.83;;;;;;;2.85;85.10;99488.84;5036493;28;20211;-77
2023/12/05 07:51:21;;;;;;;15.50;13.13;;;;;;;2.91;85.01;99492.25;5034820;28;20235;-77
2023/12/05 07:53:51;;;;;;;14.53;13.03;;;;;;;2.94;84.89;99494.00;5035788;28;20791;-77
2023/12/05 07:56:17;;;;;;;14.63;13.17;;;;;;;2.91;84.73;99497.41;5036349;28;20218;-77
2023/12/05 07:58:43;;;;;;;15.43;13.80;;;;;;;2.91;85.27;99497.41;5036195;28;20215;-78
2023/12/05 08:01:10;;;;;;;16.30;14.60;;;;;;;2.93;85.23;99493.16;5034857;28;20780;-77
2023/12/05 08:03:36;;;;;;;30.60;21.73;;;;;;;2.88;86.06;99481.13;5040256;28;20251;-77
2023/12/05 08:06:02;;;;;;;23.80;18.63;;;;;;;2.92;85.97;99475.94;5035258;28;20204;-77
2023/12/05 08:08:30;;;;;;;20.33;15.43;;;;;;;2.98;85.70;99477.66;5035259;28;20208;-78
2023/12/05 08:10:58;;;;;;;17.63;15.77;;;;;;;2.96;85.76;99480.22;5035355;28;20733;-78
2023/12/05 08:13:24;;;;;;;16.33;14.63;;;;;;;2.97;85.88;99468.19;5035176;28;20580;-77
2023/12/05 08:15:50;;;;;;;16.57;14.97;;;;;;;3.01;85.47;99469.88;5035269;28;20657;-77
2023/12/05 08:18:16;;;;;;;16.23;14.53;;;;;;;3.02;85.15;99471.63;5035814;28;20207;-77
2023/12/05 08:20:43;;;;;;;18.03;14.17;;;;;;;3.02;84.78;99484.50;5035286;28;20230;-78
2023/12/05 08:23:09;;;;;;;15.90;12.93;;;;;;;3.05;85.27;99478.47;5034480;28;20212;-78
2023/12/05 08:25:36;;;;;;;19.30;15.47;;;;;;;3.03;85.11;99493.94;5034806;28;20209;-77
2023/12/05 08:28:04;;;;;;;16.67;14.83;;;;;;;3.06;85.37;99483.63;5035040;28;20257;-78
2023/12/05 08:30:30;;;;;;;17.63;15.83;;;;;;;3.03;85.28;99493.09;5034780;28;20223;-77
2023/12/05 08:32:57;;;;;;;15.27;13.77;;;;;;;3.07;85.10;99487.94;5035309;28;20199;-78
2023/12/05 08:35:24;;;;;;;19.27;14.97;;;;;;;3.10;85.41;99487.91;5039481;28;20215;-77
2023/12/05 08:37:50;;;;;;;20.67;15.87;;;;;;;3.07;85.75;99487.06;5033742;28;21454;-77
2023/12/05 08:40:17;;;;;;;15.90;14.20;;;;;;;3.08;85.92;99488.78;5034391;28;20865;-77
2023/12/05 08:42:44;;;;;;;16.43;14.20;;;;;;;3.12;85.64;99480.19;5034453;28;20263;-76
2023/12/05 08:45:13;;;;;;;15.60;13.23;;;;;;;3.13;85.47;99480.19;5039235;28;20318;-77
2023/12/05 08:47:39;;;;;;;25.20;17.33;;;;;;;3.12;85.39;99482.75;5033113;28;20627;-78
2023/12/05 08:50:08;;;;;;;21.47;16.60;;;;;;;3.16;86.05;99482.72;5033998;28;20203;-78
2023/12/05 08:52:34;;;;;;;17.63;14.10;;;;;;;3.20;85.29;99491.31;5033504;28;20261;-77
2023/12/05 08:55:01;;;;;;;17.50;14.73;;;;;;;3.21;85.21;99487.88;5034326;28;20211;-77
2023/12/05 08:57:27;;;;;;;19.53;17.40;;;;;;;3.23;84.70;99495.59;5034076;28;20211;-77
2023/12/05 08:59:54;;;;;;;22.33;17.37;;;;;;;3.26;84.69;99493.84;5034200;28;20233;-78
2023/12/05 09:02:21;;;;;;;16.37;14.27;;;;;;;3.26;85.25;99498.16;5034599;28;20222;-78
2023/12/05 09:04:48;;;;;;;15.07;13.53;;;;;;;3.28;84.79;99493.84;5033839;28;20240;-77
2023/12/05 09:07:14;;;;;;;15.53;14.03;;;;;;;3.33;84.97;99492.97;5033517;28;20682;-78
2023/12/05 09:09:41;;;;;;;17.77;14.77;;;;;;;3.34;84.90;99507.56;5033860;28;20207;-78
2023/12/05 09:12:08;;;;;;;16.63;14.77;;;;;;;3.31;84.88;99512.75;5033155;28;20235;-79
2023/12/05 09:14:35;;;;;;;18.53;14.97;;;;;;;3.36;84.94;99510.16;5031349;28;20230;-78
2023/12/05 09:17:03;;;;;;;19.53;15.10;;;;;;;3.40;84.83;99511.84;5033289;28;20233;-77
2023/12/05 09:19:30;;;;;;;17.03;13.57;;;;;;;3.34;85.24;99512.72;5032658;28;20591;-78
2023/12/05 09:21:57;;;;;;;17.13;13.70;;;;;;;3.38;84.72;99519.59;5032844;28;20228;-78
2023/12/05 09:24:23;;;;;;;14.23;12.73;;;;;;;3.38;85.09;99521.31;5033540;28;20237;-78
2023/12/05 09:26:49;;;;;;;16.67;14.00;;;;;;;3.34;85.13;99528.19;5034164;28;20208;-78
2023/12/05 09:29:16;;;;;;;14.30;12.83;;;;;;;3.35;85.29;99518.72;5034043;28;20352;-78
2023/12/05 09:31:42;;;;;;;15.93;12.67;;;;;;;3.42;85.18;99528.16;5032845;28;20224;-78
2023/12/05 09:34:08;;;;;;;14.27;12.87;;;;;;;3.41;85.28;99526.47;5033164;28;20211;-78
2023/12/05 09:36:36;;;;;;;15.27;13.67;;;;;;;3.44;84.73;99530.75;5032996;28;20205;-79
2023/12/05 09:39:03;;;;;;;16.33;13.50;;;;;;;3.46;84.77;99529.03;5026119;28;20264;-78
2023/12/05 09:41:30;;;;;;;15.53;13.93;;;;;;;3.45;84.56;99523.00;5033089;28;20615;-77
2023/12/05 09:44:00;;;;;;;16.37;14.80;;;;;;;3.47;84.72;99525.56;5038336;28;20700;-78
2023/12/05 09:46:28;;;;;;;15.83;14.13;;;;;;;3.46;85.04;99519.56;5033536;28;20260;-78
2023/12/05 09:49:00;;;;;;;17.10;15.30;;;;;;;3.51;84.86;99527.28;5033357;28;20212;-77
2023/12/05 09:51:26;;;;;;;15.80;14.17;;;;;;;3.56;84.34;99525.53;5031979;28;20232;-76
2023/12/05 09:53:55;;;;;;;15.33;13.30;;;;;;;3.55;84.85;99531.56;5031977;28;20230;-78
2023/12/05 09:56:22;;;;;;;16.03;14.43;;;;;;;3.59;84.76;99528.09;5032949;28;20265;-77
2023/12/05 09:58:49;;;;;;;15.63;13.47;;;;;;;3.61;84.98;99522.91;5031738;28;20270;-78
2023/12/05 10:01:17;;;;;;;16.00;14.50;;;;;;;3.62;84.53;99516.91;5030016;28;20795;-76
2023/12/05 10:03:44;;;;;;;15.57;13.03;;;;;;;3.65;84.70;99525.47;5030928;28;20748;-76
2023/12/05 10:06:12;;;;;;;16.30;14.60;;;;;;;3.71;84.94;99522.03;5030644;28;20212;-76
2023/12/05 10:08:39;;;;;;;15.40;13.10;;;;;;;3.73;84.77;99523.72;5031427;28;20212;-76
2023/12/05 10:11:09;;;;;;;15.47;14.00;;;;;;;3.76;84.91;99518.50;5030945;28;20231;-77
2023/12/05 10:13:37;;;;;;;15.57;13.97;;;;;;;3.78;84.65;99526.25;5036804;28;20285;-76
2023/12/05 10:16:05;;;;;;;15.00;13.37;;;;;;;3.83;84.61;99524.50;5031312;28;20580;-76
2023/12/05 10:18:32;;;;;;;16.27;13.53;;;;;;;3.92;84.35;99527.00;5030059;28;20275;-76
2023/12/05 10:20:59;;;;;;;15.60;14.13;;;;;;;3.91;84.50;99533.06;5030545;28;20232;-76
2023/12/05 10:23:25;;;;;;;16.13;14.43;;;;;;;3.96;84.50;99538.19;5028802;28;20206;-77
2023/12/05 10:25:52;;;;;;;15.83;14.33;;;;;;;4.00;83.75;99539.03;5029279;28;20227;-76
2023/12/05 10:28:20;;;;;;;16.10;14.40;;;;;;;4.06;83.84;99533.81;5027515;28;20271;-77
2023/12/05 10:30:46;;;;;;;14.57;13.17;;;;;;;4.08;83.79;99548.44;5029273;28;20294;-76
2023/12/05 10:33:14;;;;;;;15.97;14.10;;;;;;;4.12;83.73;99541.53;5029459;28;20263;-77
2023/12/05 10:35:42;;;;;;;15.67;13.87;;;;;;;4.15;83.75;99549.25;5029309;28;20962;-77
2023/12/05 10:38:09;;;;;;;14.53;13.03;;;;;;;4.22;83.08;99547.47;5031730;28;20744;-76
2023/12/05 10:40:52;;;;;;;14.70;13.27;;;;;;;4.28;82.96;99555.19;5035074;28;20277;-77
2023/12/05 10:43:21;;;;;;;14.80;13.23;;;;;;;4.28;83.52;99565.50;5039034;28;20215;-77
2023/12/05 10:45:48;;;;;;;15.83;14.17;;;;;;;4.33;83.47;99563.75;5038243;28;20775;-77
2023/12/05 10:48:16;;;;;;;17.27;15.47;;;;;;;4.33;83.06;99563.75;5035662;28;20592;-77
2023/12/05 10:50:44;;;;;;;16.37;14.67;;;;;;;4.40;83.32;99552.53;5035033;28;20232;-77
2023/12/05 10:53:10;;;;;;;15.97;14.37;;;;;;;4.42;83.01;99565.41;5034602;28;20203;-75
2023/12/05 10:55:37;;;;;;;16.93;15.20;;;;;;;4.39;82.59;99563.72;5034594;28;20234;-75
2023/12/05 10:58:03;;;;;;;16.63;14.93;;;;;;;4.40;82.96;99559.38;5035358;28;20213;-77
2023/12/05 11:00:32;;;;;;;15.07;13.17;;;;;;;4.41;83.62;99550.78;5036489;28;20229;-77
2023/12/05 11:02:58;;;;;;;15.53;13.87;;;;;;;4.43;83.60;99539.56;5036014;28;20212;-78
2023/12/05 11:05:25;;;;;;;14.50;12.93;;;;;;;4.38;83.86;99543.94;5036610;28;20223;-77
2023/12/05 11:07:52;;;;;;;15.10;13.60;;;;;;;4.42;84.07;99531.81;5034351;28;20199;-77
2023/12/05 11:10:18;;;;;;;13.57;12.37;;;;;;;4.40;84.77;99526.69;5035749;28;20206;-77
2023/12/05 11:12:48;;;;;;;16.03;12.90;;;;;;;4.42;84.26;99526.66;5035407;28;20200;-77
2023/12/05 11:15:17;;;;;;;14.93;13.30;;;;;;;4.42;84.23;99529.22;5042427;28;20203;-78
2023/12/05 11:17:49;;;;;;;16.43;14.67;;;;;;;4.44;83.43;99537.81;5034929;28;20216;-77
2023/12/05 11:20:25;;;;;;;14.73;13.13;;;;;;;4.42;82.98;99549.91;5035586;28;20640;-77
2023/12/05 11:23:07;;;;;;;16.87;15.07;;;;;;;4.45;86.18;99529.22;5035553;28;20254;-77
2023/12/05 11:25:47;;;;;;;16.17;14.03;;;;;;;4.51;88.08;99472.31;5036133;28;20247;-77